Frankfort, KY

3:09 AM EST on March 01, 2015 (GMT -0500)
The Cottages of Frankfort | Change Station
CLOSE
Current Station
Personal Weather Station
Location: Frankfort, KY
Elevation: 755 ft
Nearby Weather Stations
Active Advisory: Special Statement

Elev 755 ft 38.16 °N, 84.92 °W | Updated 13 minutes ago

Partly Cloudy
Partly Cloudy
31.5 °F
Feels Like 32 °F
N
2.2
Wind Variable Wind from NE

Today
High -- | Low -- °F
--% Chance of Precip.
Yesterday
High -- | Low -- °F
Precip. -- in
7:11 AM 6:32 PM
Waxing Gibbous, 83% visible
Pressure 30.43 in
Visibility 10.0 miles
Clouds Overcast 9500 ft
Windchill 32 °F
Dew Point 24 °F
Humidity 74%
Rainfall 0.00 in
Snow Depth Not available.
UV 0 out of 12
Pollen .60 out of 12
Air Quality Not available.
Flu Activity Not available.
METAR KLEX 010754Z 08006KT 10SM OVC095 00/M06 A3040 RMK AO2 SLP303 T00001061

More Conditions Fewer Conditions

Pressure 30.43 in
Visibility 10.0 miles
Clouds Overcast 9500 ft
Windchill 32 °F
Dew Point 24 °F
Humidity 74%
Rainfall 0.00 in
Snow Depth Not available.
UV 0 out of 12
Pollen .60 out of 12
Air Quality Not available.
Flu Activity Not available.
METAR KLEX 010754Z 08006KT 10SM OVC095 00/M06 A3040 RMK AO2 SLP303 T00001061

More Conditions Fewer Conditions

10-Day Weather Forecast

Almanac

Astronomy

Mar. 01, 2015 Rise Set
Actual Time
Civil Twilight
Nautical Twilight
Astronomical Twilight
Moon
Length of Visible Light
Length of Day
Tomorrow will be .
, % of the Moon is Illuminated

Today's Extremes

State Highs State Lows

Community

WunderPhotos

Upload Photos

1,801,350 photos uploaded!

WunderBlogs® & News

Nearby

Air Quality

  Air Quality AQ Index Pollutant
Not available.

Snow Depth

Station Depth Elevation

Earthquake Activity

City Distance Mag. Time & Date
Minimum magnitude displayed is 2.5.

Coastal Water Temperatures

Place Temperature

Nearby Weather Stations

Special Statement
Statement as of 8:28 PM CST on February 28, 2015

... A light wintry mix possible tonight...

A period of light snow and wintry mix is beginning this
evening... which could result in slick spots on area roadways.
Precipitation initially in the form of light snow and sleet will
change over to a mix of light sleet/freezing rain overnight. By
Sunday morning... temperatures are expected to rise above freezing
changing any frozen precipitation to all rain. A light coating of
snow and ice could make for slick roads Sunday morning...
especially on any untreated... secondary surface.